Cut Knife, Canada
Current Conditions -  °F | °C
As of 5:00 AM on Friday 31 Oct 2014 (Local Time) from CYQW Reporting Station
Scattered Clouds Scattered Clouds  
Wind Chill: 22°   Ceiling: Unl
Heat Index: 34°   Visibility: 9mi
Dew Point: 30°   Wind: 22mph
Humidity: 87%   Direction: 130°SE
Pressure: 30"   Gusts: 30mph
Location:  52.74°N, 109.02°W
Report Text: CYQW 311100Z AUTO 13019G26KT 9SM SCT100 01/M01 A3000 RMK PRESFR SLP187
Loading
Personal Weather Stations






























Interactive Weather Map
Tropical Storm Tracking
New forecast layout! Learn more

10-Day Weather Forecast

Advertisements
Track Severe Weather on mobile